Time;durP1;ratioP1;P1;durP2;ratioP2;P2;SDS_P1;SDS_P2;PMS_P1;PMS_P2;Temp;Humidity;BMP_temperature;BMP_pressure;BME280_temperature;BME280_humidity;BME280_pressure;Samples;Min_cycle;Max_cycle;Signal;HPM_P1;HPM_P2
2023/07/01 00:01:22;;;;;;;6.30;1.98;;;;;;;-142.75;100.00;75721.97;5042818;28;20102;-64
2023/07/01 00:03:48;;;;;;;3.75;2.08;;;;;;;-142.75;100.00;75714.09;5042123;28;20033;-64
2023/07/01 00:06:14;;;;;;;5.50;2.20;;;;;;;-142.75;100.00;75708.19;5042130;28;20032;-63
2023/07/01 00:08:40;;;;;;;5.90;2.22;;;;;;;-142.75;100.00;75698.34;5042705;28;20048;-61
2023/07/01 00:11:06;;;;;;;9.07;2.63;;;;;;;-142.75;100.00;75704.25;5041997;28;20021;-63
2023/07/01 00:13:32;;;;;;;7.10;3.15;;;;;;;-142.75;100.00;75720.00;5044803;28;20115;-64
2023/07/01 00:15:58;;;;;;;7.50;2.47;;;;;;;-142.75;100.00;75696.38;5046073;28;20108;-63
2023/07/01 00:18:23;;;;;;;7.13;2.42;;;;;;;-142.75;100.00;75684.56;5046204;28;20082;-63
2023/07/01 00:20:49;;;;;;;4.45;2.47;;;;;;;-142.75;100.00;75676.69;5045167;28;20049;-62
2023/07/01 00:23:15;;;;;;;7.93;2.70;;;;;;;-142.75;100.00;75668.84;5046009;28;20037;-63
2023/07/01 00:25:40;;;;;;;7.53;2.42;;;;;;;-142.75;100.00;75664.91;5047019;28;20381;-63
2023/07/01 00:28:06;;;;;;;9.77;3.00;;;;;;;-142.75;100.00;75680.63;5065492;28;20518;-63
2023/07/01 00:30:31;;;;;;;7.78;3.17;;;;;;;-142.75;100.00;75686.53;5058885;28;20029;-63
2023/07/01 00:32:56;;;;;;;5.07;2.72;;;;;;;-142.75;100.00;75666.88;5045578;28;20028;-63
2023/07/01 00:35:22;;;;;;;6.93;2.85;;;;;;;-142.75;100.00;75655.06;5055016;28;20028;-63
2023/07/01 00:37:47;;;;;;;7.07;2.90;;;;;;;-142.75;100.00;75664.91;5066212;28;20391;-63
2023/07/01 00:40:12;;;;;;;5.88;2.40;;;;;;;-142.75;100.00;75647.19;5065673;28;20040;-63
2023/07/01 00:42:38;;;;;;;6.47;3.13;;;;;;;-142.75;100.00;75649.16;5065090;28;20480;-62
2023/07/01 00:45:04;;;;;;;10.45;3.40;;;;;;;-142.75;100.00;75666.88;5064024;28;20016;-64
2023/07/01 00:47:29;;;;;;;9.40;3.35;;;;;;;-142.75;100.00;75664.91;5065108;28;20027;-64
2023/07/01 00:49:56;;;;;;;6.43;3.50;;;;;;;-142.75;100.00;75680.63;5065016;28;20012;-63
2023/07/01 00:52:22;;;;;;;11.75;3.03;;;;;;;-142.75;100.00;75680.63;5065647;28;20360;-64
2023/07/01 00:54:48;;;;;;;6.55;3.35;;;;;;;-142.75;100.00;75690.47;5063797;28;20107;-64
2023/07/01 00:57:13;;;;;;;6.70;3.70;;;;;;;-142.75;100.00;75688.50;5061804;28;20029;-63
2023/07/01 00:59:41;;;;;;;6.25;3.17;;;;;;;-142.75;100.00;75670.81;5045237;28;20020;-63
2023/07/01 01:02:16;;;;;;;11.90;3.92;;;;;;;-142.75;100.00;75668.84;5045418;28;20078;-63
2023/07/01 01:05:01;;;;;;;11.73;4.15;;;;;;;-142.75;100.00;75674.72;5046300;28;20029;-60
2023/07/01 01:07:35;;;;;;;8.37;4.70;;;;;;;-142.75;100.00;75653.09;5047202;28;20033;-63
2023/07/01 01:10:09;;;;;;;7.57;4.07;;;;;;;-142.75;100.00;75633.41;5045070;28;20507;-61
2023/07/01 01:12:36;;;;;;;7.53;3.83;;;;;;;-142.75;100.00;75629.47;5044763;28;20028;-63
2023/07/01 01:15:02;;;;;;;8.23;3.65;;;;;;;-142.75;100.00;75635.38;5044885;28;20036;-62
2023/07/01 01:17:31;;;;;;;9.20;4.05;;;;;;;-142.75;100.00;75615.69;5047243;28;20024;-63
2023/07/01 01:20:00;;;;;;;6.72;3.75;;;;;;;-142.75;100.00;75617.66;5064372;28;20090;-64
2023/07/01 01:22:38;;;;;;;13.65;5.50;;;;;;;-142.75;100.00;75639.31;5057518;28;20079;-63
2023/07/01 01:25:08;;;;;;;9.00;4.35;;;;;;;-142.75;100.00;75641.28;5044482;28;20594;-63
2023/07/01 01:27:39;;;;;;;8.00;4.43;;;;;;;-142.75;100.00;75637.34;5055500;28;20051;-63
2023/07/01 01:30:06;;;;;;;8.18;4.72;;;;;;;-142.75;100.00;75660.97;5064558;28;20024;-62
2023/07/01 01:32:33;;;;;;;13.63;4.97;;;;;;;-142.75;100.00;75629.47;5062866;28;20140;-63
2023/07/01 01:34:59;;;;;;;8.52;4.63;;;;;;;-142.75;100.00;75623.56;5064633;28;20016;-63
2023/07/01 01:37:49;;;;;;;6.63;4.10;;;;;;;-142.75;100.00;75631.44;5064072;28;20462;-62
2023/07/01 01:40:24;;;;;;;7.65;4.90;;;;;;;-142.75;100.00;75623.56;5064307;28;20064;-62
2023/07/01 01:42:53;;;;;;;9.02;4.80;;;;;;;-142.75;100.00;75625.53;5064252;28;20020;-63
2023/07/01 01:45:19;;;;;;;8.82;5.15;;;;;;;-142.75;100.00;75609.78;5061995;28;20392;-62
2023/07/01 01:47:47;;;;;;;8.13;5.25;;;;;;;-142.75;100.00;75592.09;5044434;28;20021;-63
2023/07/01 01:50:16;;;;;;;12.80;5.30;;;;;;;-142.75;100.00;75566.50;5044046;28;20063;-63
2023/07/01 01:52:41;;;;;;;12.68;5.45;;;;;;;-142.75;100.00;75566.50;5044453;28;20031;-62
2023/07/01 01:55:09;;;;;;;11.30;5.30;;;;;;;-142.75;100.00;75564.53;5044430;28;20095;-63
2023/07/01 01:57:35;;;;;;;9.00;4.65;;;;;;;-142.75;100.00;75558.63;5043844;28;20024;-62
2023/07/01 02:00:00;;;;;;;11.13;4.97;;;;;;;-142.75;100.00;75566.50;5044314;28;20021;-63
2023/07/01 02:02:26;;;;;;;10.30;5.20;;;;;;;-142.75;100.00;75554.69;5043958;28;20078;-62
2023/07/01 02:04:51;;;;;;;8.70;4.53;;;;;;;-142.75;100.00;75556.66;5044335;28;20444;-62
2023/07/01 02:07:16;;;;;;;7.40;4.40;;;;;;;-142.75;100.00;75552.72;5058147;28;20648;-61
2023/07/01 02:09:42;;;;;;;7.03;4.95;;;;;;;-142.75;100.00;75544.84;5063730;28;21903;-60
2023/07/01 02:12:08;;;;;;;10.05;5.10;;;;;;;-142.75;100.00;75546.81;5063760;28;20663;-63
2023/07/01 02:14:33;;;;;;;11.15;5.45;;;;;;;-142.75;100.00;75540.91;5063610;28;20025;-63
2023/07/01 02:16:58;;;;;;;10.98;4.78;;;;;;;-142.75;100.00;75531.06;5063686;28;20024;-63
2023/07/01 02:19:24;;;;;;;9.35;5.15;;;;;;;-142.75;100.00;75535.00;5063267;28;20021;-64
2023/07/01 02:21:49;;;;;;;9.35;4.90;;;;;;;-142.75;100.00;75521.22;5063563;28;20021;-62
2023/07/01 02:24:14;;;;;;;12.00;4.85;;;;;;;-142.75;100.00;75517.28;5063390;28;20028;-63
2023/07/01 02:26:40;;;;;;;8.85;4.75;;;;;;;-142.75;100.00;75515.31;5063071;28;20031;-62
2023/07/01 02:29:05;;;;;;;7.43;4.70;;;;;;;-142.75;100.00;75505.50;5063115;28;20077;-63
2023/07/01 02:31:30;;;;;;;11.27;4.78;;;;;;;-142.75;100.00;75499.59;5063379;28;20032;-62
2023/07/01 02:34:00;;;;;;;14.30;5.05;;;;;;;-142.75;100.00;75503.53;5063006;28;20036;-62
2023/07/01 02:36:26;;;;;;;5.93;4.15;;;;;;;-142.75;100.00;75503.53;5062352;28;20028;-63
2023/07/01 02:38:51;;;;;;;8.65;4.38;;;;;;;-142.75;100.00;75481.88;5064053;28;20384;-60
2023/07/01 02:41:16;;;;;;;10.73;4.68;;;;;;;-142.75;100.00;75487.78;5053259;28;20115;-63
2023/07/01 02:43:42;;;;;;;10.68;4.93;;;;;;;-142.75;100.00;75475.97;5043837;28;20051;-63
2023/07/01 02:46:07;;;;;;;10.20;4.93;;;;;;;-142.75;100.00;75468.09;5043966;28;20055;-62
2023/07/01 02:48:32;;;;;;;12.38;5.40;;;;;;;-142.75;100.00;75460.22;5043752;28;20546;-61
2023/07/01 02:50:57;;;;;;;11.57;5.40;;;;;;;-142.75;100.00;75448.41;5043682;28;20584;-62
2023/07/01 02:53:23;;;;;;;11.65;6.40;;;;;;;-142.75;100.00;75456.28;5043556;28;20506;-64
2023/07/01 02:55:48;;;;;;;8.95;5.63;;;;;;;-142.75;100.00;75436.59;5052093;28;20046;-63
2023/07/01 02:58:14;;;;;;;7.97;5.10;;;;;;;-142.75;100.00;75452.34;5062913;28;20033;-63
2023/07/01 03:00:39;;;;;;;5.93;4.28;;;;;;;-142.75;100.00;75438.56;5063086;28;20103;-63
2023/07/01 03:03:07;;;;;;;9.02;5.57;;;;;;;-142.75;100.00;75430.72;5062971;28;20048;-63
2023/07/01 03:05:36;;;;;;;6.80;4.88;;;;;;;-142.75;100.00;75409.06;5048468;28;20021;-63
2023/07/01 03:08:03;;;;;;;7.97;4.40;;;;;;;-142.75;100.00;75405.13;5056271;28;20020;-63
2023/07/01 03:10:28;;;;;;;11.75;5.28;;;;;;;-142.75;100.00;75389.38;5062458;28;20024;-63
2023/07/01 03:12:55;;;;;;;12.02;5.13;;;;;;;-142.75;100.00;75393.31;5062550;28;20066;-63
2023/07/01 03:15:20;;;;;;;7.32;4.90;;;;;;;-142.75;100.00;75411.03;5062796;28;20020;-62
2023/07/01 03:17:49;;;;;;;6.68;4.38;;;;;;;-142.75;100.00;75393.31;5062638;28;20153;-63
2023/07/01 03:20:23;;;;;;;7.15;5.18;;;;;;;-142.75;100.00;75387.41;5062532;28;20025;-62
2023/07/01 03:22:53;;;;;;;7.20;5.05;;;;;;;-142.75;100.00;75375.59;5062844;28;20043;-62
2023/07/01 03:25:18;;;;;;;8.82;5.35;;;;;;;-142.75;100.00;75371.66;5061815;28;20031;-63
2023/07/01 03:27:45;;;;;;;7.28;5.60;;;;;;;-142.75;100.00;75385.44;5061448;28;20033;-62
2023/07/01 03:30:14;;;;;;;11.13;5.78;;;;;;;-142.75;100.00;75369.69;5061916;28;20592;-63
2023/07/01 03:32:43;;;;;;;9.88;5.85;;;;;;;-142.75;100.00;75367.72;5061786;28;20021;-63
2023/07/01 03:35:10;;;;;;;8.63;5.28;;;;;;;-142.75;100.00;75357.91;5061549;28;20388;-61
2023/07/01 03:37:38;;;;;;;8.32;4.97;;;;;;;-142.75;100.00;75348.06;5055915;28;20043;-64
2023/07/01 03:40:05;;;;;;;10.43;5.35;;;;;;;-142.75;100.00;75342.16;5061866;28;20021;-63
2023/07/01 03:42:31;;;;;;;10.57;5.18;;;;;;;-142.75;100.00;75342.16;5061346;28;20641;-63
2023/07/01 03:44:56;;;;;;;6.90;5.00;;;;;;;-142.75;100.00;75334.28;5061689;28;20024;-63
2023/07/01 03:47:22;;;;;;;7.97;5.30;;;;;;;-142.75;100.00;75318.53;5062769;28;20039;-63
2023/07/01 03:49:48;;;;;;;9.45;5.80;;;;;;;-142.75;100.00;75334.28;5065492;28;20606;-63
2023/07/01 03:52:13;;;;;;;9.63;5.35;;;;;;;-142.75;100.00;75334.28;5065946;28;20103;-63
2023/07/01 03:54:39;;;;;;;11.02;5.65;;;;;;;-142.75;100.00;75318.53;5066039;28;20043;-63
2023/07/01 03:57:04;;;;;;;11.30;5.43;;;;;;;-142.75;100.00;75302.78;5065315;28;20178;-63
2023/07/01 03:59:30;;;;;;;9.00;5.20;;;;;;;-142.75;100.00;75302.78;5065439;28;20065;-64
2023/07/01 04:01:55;;;;;;;9.98;5.20;;;;;;;-142.75;100.00;75308.69;5063785;28;20048;-63
2023/07/01 04:04:20;;;;;;;8.27;4.93;;;;;;;-142.75;100.00;75300.81;5050321;28;20119;-63
2023/07/01 04:06:46;;;;;;;7.47;5.03;;;;;;;-142.75;100.00;75304.75;5065235;28;20025;-63
2023/07/01 04:09:12;;;;;;;6.20;5.10;;;;;;;-142.75;100.00;75289.03;5065586;28;20020;-62
2023/07/01 04:11:40;;;;;;;8.35;5.32;;;;;;;-142.75;100.00;75275.25;5059690;28;20036;-63
2023/07/01 04:14:06;;;;;;;7.00;4.93;;;;;;;-142.75;100.00;75279.19;5045423;28;20497;-62
2023/07/01 04:16:32;;;;;;;7.65;5.53;;;;;;;-142.75;100.00;75271.31;5045919;28;20116;-64
2023/07/01 04:18:58;;;;;;;7.55;5.32;;;;;;;-142.75;100.00;75273.28;5045971;28;20144;-61
2023/07/01 04:21:23;;;;;;;9.38;5.32;;;;;;;-142.75;100.00;75271.31;5045220;28;20024;-64
2023/07/01 04:23:49;;;;;;;7.55;5.30;;;;;;;-142.75;100.00;75263.44;5045615;28;20032;-63
2023/07/01 04:26:14;;;;;;;7.18;4.97;;;;;;;-142.75;100.00;75259.50;5045193;28;20033;-63
2023/07/01 04:28:40;;;;;;;6.68;5.20;;;;;;;-142.75;100.00;75271.31;5045254;28;20021;-63
2023/07/01 04:31:05;;;;;;;10.75;5.25;;;;;;;-142.75;100.00;75247.69;5045638;28;20051;-63
2023/07/01 04:33:31;;;;;;;7.15;5.40;;;;;;;-142.75;100.00;75243.75;5045331;28;20113;-63
2023/07/01 04:35:56;;;;;;;9.73;5.13;;;;;;;-142.75;100.00;75239.81;5045316;28;20025;-62
2023/07/01 04:38:21;;;;;;;9.75;5.47;;;;;;;-142.75;100.00;75241.78;5057775;28;20027;-63
2023/07/01 04:40:47;;;;;;;5.93;4.38;;;;;;;-142.75;100.00;75235.88;5063632;28;20680;-64
2023/07/01 04:43:12;;;;;;;9.20;4.78;;;;;;;-142.75;100.00;75237.84;5063333;28;20568;-64
2023/07/01 04:45:41;;;;;;;11.38;5.38;;;;;;;-142.75;100.00;75235.88;5063409;28;20442;-62
2023/07/01 04:48:06;;;;;;;7.53;5.30;;;;;;;-142.75;100.00;75235.88;5063599;28;20027;-63
2023/07/01 04:50:31;;;;;;;7.68;4.80;;;;;;;-142.75;100.00;75235.88;5063209;28;20024;-63
2023/07/01 04:52:57;;;;;;;7.28;4.60;;;;;;;-142.75;100.00;75235.88;5063597;28;20048;-64
2023/07/01 04:55:22;;;;;;;8.75;4.97;;;;;;;-142.75;100.00;75218.19;5063707;28;20060;-64
2023/07/01 04:57:51;;;;;;;7.82;5.70;;;;;;;-142.75;100.00;75233.91;5062918;28;20484;-64
2023/07/01 05:00:18;;;;;;;8.57;4.93;;;;;;;-142.75;100.00;75224.09;5063698;28;20103;-65
2023/07/01 05:02:44;;;;;;;7.82;5.07;;;;;;;-142.75;100.00;75220.16;5064267;28;20659;-64
2023/07/01 05:05:09;;;;;;;6.95;4.50;;;;;;;-142.75;100.00;75235.88;5044674;28;20039;-63
2023/07/01 05:07:35;;;;;;;8.32;4.80;;;;;;;-142.75;100.00;75212.28;5061116;28;20029;-64
2023/07/01 05:10:01;;;;;;;7.45;4.50;;;;;;;-142.75;100.00;75188.66;5063310;28;20111;-64
2023/07/01 05:12:26;;;;;;;6.82;4.22;;;;;;;-142.75;100.00;75200.47;5063734;28;20032;-63
2023/07/01 05:14:52;;;;;;;6.60;4.05;;;;;;;-142.75;100.00;75198.50;5066284;28;20108;-64
2023/07/01 05:17:18;;;;;;;7.85;3.83;;;;;;;-142.75;100.00;75210.31;5066157;28;20518;-64
2023/07/01 05:19:43;;;;;;;6.60;4.40;;;;;;;-142.75;100.00;75212.28;5066165;28;20024;-64
2023/07/01 05:22:09;;;;;;;8.02;4.32;;;;;;;-142.75;100.00;75198.50;5066350;28;20388;-65
2023/07/01 05:24:34;;;;;;;5.53;3.47;;;;;;;-142.75;100.00;75204.41;5065873;28;20375;-64
2023/07/01 05:26:59;;;;;;;6.40;4.53;;;;;;;-142.75;100.00;75198.50;5066007;28;20036;-64
2023/07/01 05:29:26;;;;;;;6.22;4.00;;;;;;;-142.75;100.00;75212.28;5049168;28;20017;-63
2023/07/01 05:31:52;;;;;;;6.53;3.63;;;;;;;-142.75;100.00;75204.41;5061697;28;20468;-64
2023/07/01 05:34:17;;;;;;;4.78;3.63;;;;;;;-142.75;100.00;75192.59;5065839;28;20048;-64
2023/07/01 05:36:43;;;;;;;8.93;4.05;;;;;;;-142.75;100.00;75184.72;5051581;28;20282;-64
2023/07/01 05:39:09;;;;;;;5.67;3.33;;;;;;;-142.75;100.00;75190.63;5007438;28;1115551;-64
2023/07/01 05:41:35;;;;;;;4.30;3.15;;;;;;;-142.75;100.00;75180.78;5053776;28;20059;-64
2023/07/01 05:44:01;;;;;;;5.18;3.22;;;;;;;-142.75;100.00;75176.84;5066881;28;20613;-63
2023/07/01 05:46:26;;;;;;;4.82;2.95;;;;;;;-142.75;100.00;75178.81;5066862;28;20063;-64
2023/07/01 05:48:52;;;;;;;6.20;3.75;;;;;;;-142.75;100.00;75172.91;5066957;28;20411;-64
2023/07/01 05:51:17;;;;;;;5.07;2.90;;;;;;;-142.75;100.00;75163.09;5066462;28;20031;-64
2023/07/01 05:53:45;;;;;;;5.07;3.30;;;;;;;-142.75;100.00;75155.22;5066766;28;20243;-65
2023/07/01 05:56:11;;;;;;;4.57;3.13;;;;;;;-142.75;100.00;75159.16;5066819;28;20036;-64
2023/07/01 05:58:36;;;;;;;7.00;3.53;;;;;;;-142.75;100.00;75167.00;5050766;28;20052;-64
2023/07/01 06:01:02;;;;;;;9.38;4.10;;;;;;;-142.75;100.00;75165.03;5046866;28;20013;-64
2023/07/01 06:03:27;;;;;;;7.20;3.85;;;;;;;-142.75;100.00;75153.25;5046661;28;20122;-64
2023/07/01 06:05:53;;;;;;;6.53;4.13;;;;;;;-142.75;100.00;75170.94;5057754;28;20028;-64
2023/07/01 06:08:18;;;;;;;5.05;3.75;;;;;;;-142.75;100.00;75149.31;5066429;28;20101;-64
2023/07/01 06:10:43;;;;;;;6.72;3.90;;;;;;;-142.75;100.00;75153.25;5065643;28;20021;-64
2023/07/01 06:13:09;;;;;;;5.78;3.80;;;;;;;-142.75;100.00;75165.03;5066343;28;20427;-65
2023/07/01 06:15:34;;;;;;;5.53;4.18;;;;;;;-142.75;100.00;75149.31;5056238;28;20094;-65
2023/07/01 06:18:00;;;;;;;7.78;3.55;;;;;;;-142.75;100.00;75149.31;5046396;28;20024;-64
2023/07/01 06:20:25;;;;;;;6.80;4.18;;;;;;;-142.75;100.00;75153.25;5045945;28;20024;-64
2023/07/01 06:22:50;;;;;;;5.15;3.50;;;;;;;-142.75;100.00;75145.38;5061381;28;20507;-64
2023/07/01 06:25:16;;;;;;;7.28;3.83;;;;;;;-142.75;100.00;75137.50;5065868;28;20032;-62
2023/07/01 06:27:41;;;;;;;5.28;3.20;;;;;;;-142.75;100.00;75135.53;5064414;28;20028;-65
2023/07/01 06:30:07;;;;;;;6.32;3.90;;;;;;;-142.75;100.00;75125.69;5050868;28;20035;-65
2023/07/01 06:32:32;;;;;;;9.30;4.00;;;;;;;-142.75;100.00;75143.41;5046471;28;20037;-64
2023/07/01 06:34:58;;;;;;;5.40;3.30;;;;;;;-142.75;100.00;75135.53;5045827;28;20037;-64
2023/07/01 06:37:23;;;;;;;6.82;3.63;;;;;;;-142.75;100.00;75129.63;5046560;28;20029;-63
2023/07/01 06:39:48;;;;;;;6.50;4.07;;;;;;;-142.75;100.00;75125.69;5066569;28;20028;-65
2023/07/01 06:42:14;;;;;;;8.05;3.75;;;;;;;-142.75;100.00;75137.50;5065948;28;20062;-64
2023/07/01 06:44:39;;;;;;;6.03;4.35;;;;;;;-142.75;100.00;75107.97;5053543;28;20035;-64
2023/07/01 06:47:05;;;;;;;5.93;4.28;;;;;;;-142.75;100.00;75119.78;5044179;28;20025;-64
2023/07/01 06:49:31;;;;;;;5.75;3.45;;;;;;;-142.75;100.00;75113.88;5043969;28;20083;-64
2023/07/01 06:51:56;;;;;;;4.85;3.45;;;;;;;-142.75;100.00;75098.16;5044501;28;20065;-64
2023/07/01 06:54:22;;;;;;;6.47;4.13;;;;;;;-142.75;100.00;75094.22;5045455;28;20503;-64
2023/07/01 06:56:47;;;;;;;4.57;3.38;;;;;;;-142.75;100.00;75098.16;5045242;28;20021;-64
2023/07/01 06:59:12;;;;;;;5.22;3.38;;;;;;;-142.75;100.00;75102.06;5045422;28;20340;-64
2023/07/01 07:01:38;;;;;;;5.72;3.92;;;;;;;-142.75;100.00;75094.22;5044458;28;20021;-63
2023/07/01 07:04:03;;;;;;;5.40;3.08;;;;;;;-142.75;100.00;75094.22;5046368;28;20491;-63
2023/07/01 07:06:29;;;;;;;4.22;2.80;;;;;;;-142.75;100.00;75082.41;5045434;28;20028;-62
2023/07/01 07:08:54;;;;;;;4.35;2.38;;;;;;;-142.75;100.00;75076.50;5047442;28;20033;-63
2023/07/01 07:11:19;;;;;;;4.13;2.00;;;;;;;-142.75;100.00;75086.34;5044860;28;20032;-64
2023/07/01 07:13:45;;;;;;;4.20;2.30;;;;;;;-142.75;100.00;75064.69;5046193;28;20040;-65
2023/07/01 07:16:10;;;;;;;2.83;1.80;;;;;;;-142.75;100.00;75052.88;5045085;28;20075;-65
2023/07/01 07:18:35;;;;;;;3.47;2.17;;;;;;;-142.75;100.00;75050.91;5045017;28;20064;-64
2023/07/01 07:21:01;;;;;;;4.57;2.20;;;;;;;-142.75;100.00;75043.03;5044844;28;20045;-64
2023/07/01 07:23:26;;;;;;;3.65;1.40;;;;;;;-142.75;100.00;75043.03;5043954;28;20032;-64
2023/07/01 07:25:51;;;;;;;2.97;1.40;;;;;;;-142.75;100.00;75041.09;5045718;28;20033;-64
2023/07/01 07:28:17;;;;;;;3.00;1.40;;;;;;;-142.75;100.00;75031.25;5044833;28;20029;-64
2023/07/01 07:30:42;;;;;;;2.45;1.40;;;;;;;-142.75;100.00;75033.22;5041514;28;20123;-64
2023/07/01 07:33:07;;;;;;;2.42;1.55;;;;;;;-142.75;100.00;75046.97;5044014;28;20021;-64
2023/07/01 07:35:33;;;;;;;2.65;1.38;;;;;;;-142.75;100.00;75048.94;5044551;28;20541;-64
2023/07/01 07:37:58;;;;;;;1.95;1.30;;;;;;;-142.75;100.00;75031.25;5049237;28;20041;-64
2023/07/01 07:40:23;;;;;;;1.88;1.13;;;;;;;-142.75;100.00;75046.97;5044176;28;20048;-66
2023/07/01 07:42:53;;;;;;;2.40;1.30;;;;;;;-142.75;100.00;75023.38;5044173;28;20024;-65
2023/07/01 07:45:20;;;;;;;2.33;1.38;;;;;;;-142.75;100.00;75007.63;5048362;28;20037;-63
2023/07/01 07:47:45;;;;;;;2.03;1.35;;;;;;;-142.75;100.00;74999.75;5041923;28;20025;-64
2023/07/01 07:50:11;;;;;;;1.73;1.02;;;;;;;-142.75;100.00;75005.66;5043271;28;20021;-64
2023/07/01 07:52:36;;;;;;;2.00;1.20;;;;;;;-142.75;100.00;74995.81;5049288;28;20036;-64
2023/07/01 07:55:01;;;;;;;2.15;1.15;;;;;;;-142.75;100.00;75017.47;5041934;28;20028;-64
2023/07/01 07:57:27;;;;;;;4.20;1.40;;;;;;;-142.75;100.00;74997.78;5044457;28;20017;-64
2023/07/01 07:59:53;;;;;;;2.60;1.40;;;;;;;-142.75;100.00;74995.81;5040933;28;20049;-65
2023/07/01 08:02:18;;;;;;;2.42;1.50;;;;;;;-142.75;100.00;74972.22;5042892;28;20110;-65
2023/07/01 08:04:43;;;;;;;4.47;1.50;;;;;;;-142.75;100.00;74972.22;5041487;28;20067;-65
2023/07/01 08:07:10;;;;;;;2.17;1.50;;;;;;;-142.75;100.00;74970.25;5043334;28;20398;-64
2023/07/01 08:09:35;;;;;;;2.20;1.20;;;;;;;-142.75;100.00;74944.66;5042986;28;20025;-65
2023/07/01 08:12:02;;;;;;;3.08;1.30;;;;;;;-142.75;100.00;74940.72;5043922;28;20550;-65
2023/07/01 08:14:27;;;;;;;2.35;1.42;;;;;;;-142.75;100.00;74948.59;5043330;28;20087;-64
2023/07/01 08:16:53;;;;;;;2.33;1.50;;;;;;;-142.75;100.00;74952.53;5042649;28;20025;-65
2023/07/01 08:19:19;;;;;;;3.13;1.83;;;;;;;-142.75;100.00;74942.69;5042585;28;20036;-65
2023/07/01 08:21:44;;;;;;;2.58;1.55;;;;;;;-142.75;100.00;74948.59;5041586;28;20029;-64
2023/07/01 08:24:10;;;;;;;2.75;1.80;;;;;;;-142.75;100.00;74932.84;5044472;28;20025;-64
2023/07/01 08:26:35;;;;;;;3.40;1.75;;;;;;;-142.75;100.00;74936.78;5043212;28;20108;-64
2023/07/01 08:29:00;;;;;;;4.05;2.20;;;;;;;-142.75;100.00;74944.66;5043890;28;20056;-63
2023/07/01 08:31:26;;;;;;;4.25;1.90;;;;;;;-142.75;100.00;74930.88;5042201;28;20117;-64
2023/07/01 08:33:52;;;;;;;4.68;2.38;;;;;;;-142.75;100.00;74911.22;5045374;28;20525;-64
2023/07/01 08:36:17;;;;;;;3.60;2.00;;;;;;;-142.75;100.00;74889.56;5047271;28;20036;-65
2023/07/01 08:38:42;;;;;;;2.60;1.65;;;;;;;-142.75;100.00;74899.41;5047026;28;20049;-64
2023/07/01 08:41:11;;;;;;;3.38;1.88;;;;;;;-142.75;100.00;74881.69;5046550;28;20031;-65
2023/07/01 08:43:39;;;;;;;2.92;1.95;;;;;;;-142.75;100.00;74877.75;5046933;28;20047;-64
2023/07/01 08:46:05;;;;;;;3.28;1.80;;;;;;;-142.75;100.00;74907.28;5046404;28;20108;-64
2023/07/01 08:48:32;;;;;;;3.65;2.20;;;;;;;-142.75;100.00;74883.66;5045550;28;20029;-64
2023/07/01 08:51:21;;;;;;;3.80;2.13;;;;;;;-142.75;100.00;74873.81;5055159;28;20565;-64
2023/07/01 08:53:47;;;;;;;2.67;1.50;;;;;;;-142.75;100.00;74875.78;5067893;28;20032;-65
2023/07/01 08:56:13;;;;;;;2.72;1.65;;;;;;;-142.75;100.00;74869.88;5067646;28;20032;-65
2023/07/01 08:58:39;;;;;;;2.30;1.55;;;;;;;-142.75;100.00;74875.78;5067799;28;20024;-65
2023/07/01 09:01:05;;;;;;;2.42;1.63;;;;;;;-142.75;100.00;74869.88;5067491;28;20043;-64
2023/07/01 09:03:35;;;;;;;2.58;1.33;;;;;;;-142.75;100.00;74844.31;5067822;28;20084;-65
2023/07/01 09:06:01;;;;;;;2.28;1.27;;;;;;;-142.75;100.00;74856.13;5067459;28;20155;-65
2023/07/01 09:08:27;;;;;;;1.85;1.10;;;;;;;-142.75;100.00;74858.09;5047143;28;20078;-66
2023/07/01 09:10:52;;;;;;;2.95;1.17;;;;;;;-142.75;100.00;74852.19;5045937;28;20025;-64
2023/07/01 09:13:17;;;;;;;1.38;0.82;;;;;;;-142.75;100.00;74854.16;5047531;28;20039;-64
2023/07/01 09:15:45;;;;;;;2.00;0.93;;;;;;;-142.75;100.00;74842.34;5047034;28;20028;-64
2023/07/01 09:18:26;;;;;;;1.80;1.00;;;;;;;-142.75;100.00;74830.53;5047507;28;20029;-64
2023/07/01 09:20:52;;;;;;;1.70;1.00;;;;;;;-142.75;100.00;74842.34;5047703;28;20079;-64
2023/07/01 09:23:24;;;;;;;3.22;1.42;;;;;;;-142.75;100.00;74869.88;5047436;28;20044;-64
2023/07/01 09:25:50;;;;;;;1.73;0.90;;;;;;;-142.75;100.00;74881.69;5047775;28;20056;-64
2023/07/01 09:28:30;;;;;;;2.63;1.40;;;;;;;-142.75;100.00;74860.06;5047232;28;20507;-64
2023/07/01 09:31:08;;;;;;;3.47;1.33;;;;;;;-142.75;100.00;74869.88;5047397;28;20021;-64
2023/07/01 09:33:36;;;;;;;2.83;1.85;;;;;;;-142.75;100.00;74877.75;5046793;28;20057;-64
2023/07/01 09:36:03;;;;;;;5.15;1.75;;;;;;;-142.75;100.00;74877.75;5046330;28;20048;-64
2023/07/01 09:38:29;;;;;;;4.85;2.53;;;;;;;-142.75;100.00;74877.75;5046607;28;20190;-63
2023/07/01 09:40:55;;;;;;;4.28;2.08;;;;;;;-142.75;100.00;74865.97;5045418;28;20028;-61
2023/07/01 09:43:41;;;;;;;5.55;2.47;;;;;;;-142.75;100.00;74848.25;5047253;28;20025;-64
2023/07/01 09:46:07;;;;;;;5.85;2.63;;;;;;;-142.75;100.00;74865.97;5045396;28;20646;-63
2023/07/01 09:48:33;;;;;;;9.40;3.28;;;;;;;-142.75;100.00;74860.06;5045942;28;20028;-64
2023/07/01 09:51:05;;;;;;;6.50;3.10;;;;;;;-142.75;100.00;74840.38;5046360;28;20290;-63
2023/07/01 09:53:35;;;;;;;7.10;3.03;;;;;;;-142.75;100.00;74840.38;5045930;28;20024;-64
2023/07/01 09:56:03;;;;;;;5.75;3.92;;;;;;;-142.75;100.00;74842.34;5043734;28;20029;-64
2023/07/01 09:58:30;;;;;;;11.00;3.95;;;;;;;-142.75;100.00;74850.22;5048688;28;20029;-64
2023/07/01 10:00:57;;;;;;;8.02;3.85;;;;;;;-142.75;100.00;74856.13;5046159;28;20108;-63
2023/07/01 10:03:23;;;;;;;7.72;3.53;;;;;;;-142.75;100.00;74858.09;5047058;28;20570;-62
2023/07/01 10:05:51;;;;;;;5.95;3.65;;;;;;;-142.75;100.00;74844.31;5045633;28;20111;-63
2023/07/01 10:08:16;;;;;;;7.93;3.28;;;;;;;-142.75;100.00;74854.16;5044327;28;20029;-64
2023/07/01 10:10:42;;;;;;;5.90;3.15;;;;;;;-142.75;100.00;74865.97;5042596;28;20407;-63
2023/07/01 10:13:08;;;;;;;4.53;2.85;;;;;;;-142.75;100.00;74865.97;5046693;28;20094;-64
2023/07/01 10:15:35;;;;;;;5.78;3.30;;;;;;;-142.75;100.00;74854.16;5044164;28;20040;-64
2023/07/01 10:18:01;;;;;;;5.70;3.13;;;;;;;-142.75;100.00;74860.06;5043043;28;20500;-64
2023/07/01 10:20:30;;;;;;;6.38;3.42;;;;;;;-142.75;100.00;74850.22;5056046;28;20027;-64
2023/07/01 10:22:58;;;;;;;6.60;3.30;;;;;;;-142.75;100.00;74858.09;5042936;28;20020;-62
2023/07/01 10:25:40;;;;;;;7.80;4.07;;;;;;;-142.75;100.00;74826.59;5043199;28;20029;-63
2023/07/01 10:28:09;;;;;;;6.03;3.42;;;;;;;-142.75;100.00;74838.41;5043149;28;20067;-64
2023/07/01 10:30:58;;;;;;;5.03;2.90;;;;;;;-142.75;100.00;74830.53;5043061;28;20128;-65
2023/07/01 10:33:35;;;;;;;8.43;3.30;;;;;;;-142.75;100.00;74834.47;5040296;28;20095;-65
2023/07/01 10:36:18;;;;;;;6.18;3.55;;;;;;;-142.75;100.00;74850.22;5057879;28;20570;-63
2023/07/01 10:38:44;;;;;;;7.57;4.18;;;;;;;-142.75;100.00;74854.16;5042719;28;20029;-64
2023/07/01 10:41:10;;;;;;;8.60;4.57;;;;;;;-142.75;100.00;74830.53;5042412;28;20021;-63
2023/07/01 10:43:39;;;;;;;7.85;4.18;;;;;;;-142.75;100.00;74801.03;5042498;28;20021;-63
2023/07/01 10:46:24;;;;;;;7.78;4.15;;;;;;;-142.75;100.00;74783.31;5042749;28;20024;-64
2023/07/01 10:49:05;;;;;;;11.70;4.63;;;;;;;-142.75;100.00;74797.09;5042678;28;20056;-64
2023/07/01 10:51:31;;;;;;;7.82;4.10;;;;;;;-142.75;100.00;74803.00;5041133;28;20027;-64
2023/07/01 10:54:02;;;;;;;10.20;4.50;;;;;;;-142.75;100.00;74806.94;5042152;28;20017;-64
2023/07/01 10:56:32;;;;;;;9.35;4.38;;;;;;;-142.75;100.00;74797.09;5041707;28;20052;-64
2023/07/01 10:59:25;;;;;;;10.00;4.40;;;;;;;-142.75;100.00;74773.47;5042214;28;20101;-65
2023/07/01 11:01:56;;;;;;;8.35;4.30;;;;;;;-142.75;100.00;74793.16;5042483;28;20170;-64
2023/07/01 11:04:22;;;;;;;7.22;3.97;;;;;;;-142.75;100.00;74804.97;5042848;28;20028;-63
2023/07/01 11:06:54;;;;;;;8.02;4.05;;;;;;;-142.75;100.00;74785.28;5049344;28;20396;-64
2023/07/01 11:09:32;;;;;;;8.07;3.70;;;;;;;-142.75;100.00;74783.31;5061886;28;20035;-64